»·PEaware :: NKS483 KLAS-KSAN

NKS483 :: KLAS-KSAN

FLIGHT INFORMATION

Flight Status: Arrived
Operator:
Spirit Airlines
More flights by this operator :: More flights under this callsign
Pilot: Josh T. (20631)
Aircraft: AIRBUS A320
(A320)
More flights by this aircraft type
Origin: KLAS McCarran Intl
United States
Destination: KSAN San Diego Intl-Lindbergh
United States
More flights between these airports :: More routes between these airports
Route: BOACH8 LVELL LUCKI1
File this flight plan on PilotEdge
Remarks:
Altitude:
(Current/Filed)
28,000ft
Speed:
(Current/Filed)
450kts
Departed: 10-Jan-20 09:40 PM
Arrived: 10-Jan-20 10:24 PM
Distance/Time
Traveled:
225nm/0:44
Distance/Time
To Go:
Arrived

Flight Plot

Page will automatically refresh every two minutes.

Flight plan parsing failed; only flown route is shown


Map Options




Map Legend


Flown Route
Filed Route
Departure Airport
Arrival Airport
Navaid (VOR, NDB)
Fix

Horizontal Profiles

Position Reports

Time Latitude Longitude Heading Altitude Ground
Speed
10-Jan-20 20:50 36.085203 -115.153482 334 2195ft 0kts
10-Jan-20 20:51 36.085203 -115.153482 334 2195ft 0kts
10-Jan-20 20:52 36.085203 -115.153482 334 2195ft 0kts
10-Jan-20 20:53 36.085203 -115.153482 334 2195ft 0kts
10-Jan-20 20:54 36.085203 -115.153482 334 2195ft 0kts
10-Jan-20 20:55 36.085203 -115.153482 334 2195ft 0kts
10-Jan-20 20:56 36.085203 -115.153482 334 2195ft 0kts
10-Jan-20 20:57 36.085203 -115.153482 334 2195ft 0kts
10-Jan-20 20:58 36.085203 -115.153482 334 2195ft 0kts
10-Jan-20 20:59 36.085203 -115.153482 334 2195ft 0kts
10-Jan-20 21:00 36.085203 -115.153482 334 2195ft 0kts
10-Jan-20 21:01 36.085203 -115.153482 334 2195ft 0kts
10-Jan-20 21:02 36.085203 -115.153482 334 2195ft 0kts
10-Jan-20 21:03 36.085203 -115.153482 334 2195ft 0kts
10-Jan-20 21:04 36.085203 -115.153482 334 2195ft 0kts
10-Jan-20 21:05 36.085203 -115.153482 334 2195ft 0kts
10-Jan-20 21:06 36.085203 -115.153482 334 2195ft 0kts
10-Jan-20 21:07 36.085203 -115.153482 334 2195ft 0kts
10-Jan-20 21:08 36.085203 -115.153482 334 2195ft 0kts
10-Jan-20 21:09 36.085203 -115.153482 334 2195ft 0kts
10-Jan-20 21:10 36.085203 -115.153482 334 2195ft 0kts
10-Jan-20 21:11 36.085203 -115.153482 334 2195ft 0kts
10-Jan-20 21:12 36.085203 -115.153482 334 2195ft 0kts
10-Jan-20 21:13 36.085203 -115.153482 334 2195ft 0kts
10-Jan-20 21:14 36.085203 -115.153482 334 2195ft 0kts
10-Jan-20 21:15 36.085203 -115.153482 334 2195ft 0kts
10-Jan-20 21:16 36.085203 -115.153482 334 2195ft 0kts
10-Jan-20 21:17 36.085203 -115.153482 334 2195ft 0kts
10-Jan-20 21:18 36.085203 -115.153482 334 2195ft 0kts
10-Jan-20 21:19 36.085203 -115.153482 334 2195ft 0kts
10-Jan-20 21:20 36.085203 -115.153482 334 2195ft 0kts
10-Jan-20 21:21 36.085203 -115.153482 334 2195ft 0kts
10-Jan-20 21:22 36.085203 -115.153482 334 2195ft 0kts
10-Jan-20 21:23 36.085203 -115.153482 334 2195ft 0kts
10-Jan-20 21:24 36.085203 -115.153482 334 2195ft 0kts
10-Jan-20 21:25 36.085203 -115.153482 334 2195ft 0kts
10-Jan-20 21:26 36.085203 -115.153482 334 2195ft 0kts
10-Jan-20 21:27 36.085188 -115.153473 334 2195ft 1kts
10-Jan-20 21:28 36.084531 -115.152969 311 2195ft 2kts
10-Jan-20 21:29 36.084506 -115.152455 245 2195ft 0kts
10-Jan-20 21:30 36.084506 -115.152455 245 2195ft 0kts
10-Jan-20 21:31 36.084506 -115.152456 245 2195ft 0kts
10-Jan-20 21:32 36.084506 -115.152457 245 2195ft 0kts
10-Jan-20 21:33 36.084503 -115.152465 245 2195ft 0kts
10-Jan-20 21:34 36.083463 -115.155232 245 2195ft 7kts
10-Jan-20 21:35 36.085758 -115.157379 334 2195ft 16kts
10-Jan-20 21:36 36.089189 -115.156717 24 2195ft 17kts
10-Jan-20 21:37 36.094276 -115.153790 24 2195ft 22kts
10-Jan-20 21:38 36.098088 -115.152745 292 2195ft 12kts
10-Jan-20 21:39 36.096469 -115.154783 205 2195ft 46kts
10-Jan-20 21:40 36.061421 -115.174670 204 3620ft 156kts
10-Jan-20 21:41 36.016117 -115.202035 218 5152ft 211kts
10-Jan-20 21:43 35.984518 -115.271815 241 6884ft 270kts
10-Jan-20 21:44 35.919115 -115.308435 182 8289ft 284kts
10-Jan-20 21:45 35.836708 -115.313968 177 10776ft 323kts
10-Jan-20 21:46 35.738444 -115.301392 176 12279ft 381kts
10-Jan-20 21:47 35.627614 -115.296101 184 14278ft 406kts
10-Jan-20 21:48 35.513016 -115.301588 184 16473ft 419kts
10-Jan-20 21:49 35.394715 -115.305949 185 18491ft 431kts
10-Jan-20 21:50 35.273526 -115.310857 184 20389ft 442kts
10-Jan-20 21:51 35.149067 -115.315715 185 22112ft 452kts
10-Jan-20 21:52 35.021655 -115.320653 185 23648ft 462kts
10-Jan-20 21:53 34.891992 -115.325745 185 25073ft 470kts
10-Jan-20 21:54 34.761115 -115.338648 202 26377ft 467kts
10-Jan-20 21:55 34.640953 -115.392062 206 28116ft 458kts
10-Jan-20 21:56 34.521757 -115.443490 205 28349ft 451kts
10-Jan-20 21:57 34.403324 -115.495387 205 28358ft 453kts
10-Jan-20 21:58 34.288561 -115.554984 217 28356ft 443kts
10-Jan-20 21:59 34.181588 -115.629157 208 28354ft 451kts
10-Jan-20 22:00 34.063991 -115.682830 207 28392ft 451kts
10-Jan-20 22:01 33.947073 -115.738617 207 28312ft 451kts
10-Jan-20 22:02 33.830673 -115.794834 208 28283ft 451kts
10-Jan-20 22:03 33.713783 -115.851575 206 28331ft 454kts
10-Jan-20 22:04 33.596307 -115.905758 207 27941ft 443kts
10-Jan-20 22:04 33.506278 -115.959447 229 24871ft 422kts
10-Jan-20 22:06 33.433590 -116.085699 240 23031ft 390kts
10-Jan-20 22:07 33.371439 -116.190906 240 21029ft 382kts
10-Jan-20 22:07 33.311721 -116.267264 211 19418ft 390kts
10-Jan-20 22:09 33.197506 -116.330746 210 17013ft 387kts
10-Jan-20 22:09 33.117651 -116.378448 209 15204ft 378kts
10-Jan-20 22:10 33.026050 -116.431613 209 13945ft 342kts
10-Jan-20 22:12 32.943085 -116.506689 225 12142ft 316kts
10-Jan-20 22:12 32.887993 -116.562482 223 10782ft 306kts
10-Jan-20 22:13 32.824110 -116.626772 222 9339ft 301kts
10-Jan-20 22:14 32.765264 -116.693233 240 7869ft 290kts
10-Jan-20 22:15 32.727753 -116.775532 240 6451ft 273kts
10-Jan-20 22:16 32.696237 -116.852748 252 5876ft 248kts
10-Jan-20 22:17 32.674845 -116.924795 254 4975ft 228kts
10-Jan-20 22:18 32.686493 -116.994960 287 3435ft 214kts
10-Jan-20 22:19 32.701063 -117.055963 287 2313ft 182kts
10-Jan-20 22:20 32.714243 -117.110246 286 1441ft 156kts
10-Jan-20 22:21 32.724991 -117.154550 287 586ft 133kts
10-Jan-20 22:22 32.734379 -117.193069 286 29ft 45kts
10-Jan-20 22:23 32.734642 -117.198258 119 29ft 5kts
10-Jan-20 22:24 32.734047 -117.197983 222 29ft 3kts
10-Jan-20 22:25 32.733814 -117.198146 205 29ft 0kts
10-Jan-20 22:26 32.733814 -117.198146 205 29ft 0kts

Navigation Log

Ident Type
Flight plan parsing failed, navigation log unavailable